createdAt,value
2023-09-03T00:04:43.502Z,976.39
2023-09-03T00:09:55.388Z,976.31
2023-09-03T00:15:07.405Z,976.37
2023-09-03T00:20:19.432Z,976.39
2023-09-03T00:25:32.114Z,976.34
2023-09-03T00:30:44.059Z,976.37
2023-09-03T00:35:56.267Z,976.28
2023-09-03T00:41:08.297Z,976.34
2023-09-03T00:46:20.392Z,976.26
2023-09-03T00:51:32.540Z,976.36
2023-09-03T00:56:44.565Z,976.28
2023-09-03T01:01:56.464Z,976.39
2023-09-03T01:07:08.997Z,976.36
2023-09-03T01:12:20.904Z,976.45
2023-09-03T01:17:32.845Z,976.5
2023-09-03T01:22:44.820Z,976.53
2023-09-03T01:27:56.715Z,976.55
2023-09-03T01:33:08.674Z,976.5
2023-09-03T01:38:20.766Z,976.61
2023-09-03T01:43:32.991Z,976.67
2023-09-03T01:48:44.976Z,976.63
2023-09-03T01:53:56.879Z,976.67
2023-09-03T01:59:08.977Z,976.76
2023-09-03T02:04:21.002Z,976.8
2023-09-03T02:09:32.954Z,976.81
2023-09-03T02:14:46.922Z,976.82
2023-09-03T02:19:58.828Z,976.84
2023-09-03T02:25:10.852Z,976.82
2023-09-03T02:30:22.750Z,976.92
2023-09-03T02:35:34.655Z,976.91
2023-09-03T02:40:46.566Z,976.85
2023-09-03T02:45:58.517Z,976.89
2023-09-03T02:51:10.457Z,976.96
2023-09-03T02:56:22.363Z,976.99
2023-09-03T03:01:34.337Z,977
2023-09-03T03:06:46.289Z,977.16
2023-09-03T03:11:58.171Z,977.12
2023-09-03T03:17:10.068Z,977.12
2023-09-03T03:22:21.945Z,976.97
2023-09-03T03:27:33.832Z,976.89
2023-09-03T03:32:45.730Z,976.97
2023-09-03T03:37:57.684Z,977
2023-09-03T03:43:09.708Z,977.1
2023-09-03T03:48:21.881Z,977.21
2023-09-03T03:53:34.638Z,977.31
2023-09-03T03:58:46.675Z,977.33
2023-09-03T04:03:58.573Z,977.26
2023-09-03T04:09:10.483Z,977.27
2023-09-03T04:14:22.396Z,977.19
2023-09-03T04:19:34.291Z,977.32
2023-09-03T04:24:46.194Z,977.33
2023-09-03T04:29:58.119Z,977.4
2023-09-03T04:35:10.019Z,977.4
2023-09-03T04:40:22.859Z,977.41
2023-09-03T04:45:34.892Z,977.52
2023-09-03T04:50:46.939Z,977.66
2023-09-03T04:56:00.634Z,977.66
2023-09-03T05:01:13.110Z,977.68
2023-09-03T05:06:25.022Z,977.7
2023-09-03T05:11:37.214Z,977.85
2023-09-03T05:16:49.916Z,977.8
2023-09-03T05:22:01.895Z,977.86
2023-09-03T05:27:13.863Z,977.79
2023-09-03T05:32:25.788Z,977.85
2023-09-03T05:37:37.867Z,977.92
2023-09-03T05:42:50.020Z,978.17
2023-09-03T05:48:02.056Z,978.26
2023-09-03T05:53:14.061Z,978.24
2023-09-03T05:58:26.166Z,978.17
2023-09-03T06:03:38.241Z,978.03
2023-09-03T06:08:50.325Z,978
2023-09-03T06:14:02.345Z,978.08
2023-09-03T06:19:15.511Z,978.07
2023-09-03T06:24:30.269Z,978.14
2023-09-03T06:29:42.944Z,978.21
2023-09-03T06:34:54.864Z,978.29
2023-09-03T06:40:06.768Z,978.3
2023-09-03T06:45:19.293Z,978.32
2023-09-03T06:50:31.710Z,978.41
2023-09-03T06:55:44.193Z,978.53
2023-09-03T07:00:56.927Z,978.43
2023-09-03T07:06:09.773Z,978.56
2023-09-03T07:11:22.508Z,978.75
2023-09-03T07:16:35.181Z,978.76
2023-09-03T07:21:49.660Z,978.92
2023-09-03T07:27:02.302Z,978.79
2023-09-03T07:32:15.755Z,978.82
2023-09-03T07:37:28.587Z,978.86
2023-09-03T07:42:41.141Z,978.84
2023-09-03T07:47:53.078Z,978.8
2023-09-03T07:53:05.012Z,979.03
2023-09-03T07:58:16.925Z,979.01
2023-09-03T08:03:28.940Z,978.99
2023-09-03T08:08:40.888Z,979.05
2023-09-03T08:13:53.048Z,979.19
2023-09-03T08:19:04.961Z,979.19
2023-09-03T08:24:17.148Z,979.15
2023-09-03T08:29:29.234Z,979.23
2023-09-03T08:34:41.330Z,979.28
2023-09-03T08:39:53.361Z,979.28
2023-09-03T08:45:05.272Z,979.18
2023-09-03T08:50:17.210Z,979.31
2023-09-03T08:55:29.135Z,979.17
2023-09-03T09:00:41.080Z,979.15
2023-09-03T09:05:53.059Z,979.22
2023-09-03T09:11:05.099Z,979.27
2023-09-03T09:16:17.087Z,979.39
2023-09-03T09:21:29.146Z,979.36
2023-09-03T09:26:41.057Z,979.42
2023-09-03T09:31:53.076Z,979.46
2023-09-03T09:37:04.937Z,979.51
2023-09-03T09:42:16.832Z,979.5
2023-09-03T09:47:28.822Z,979.5
2023-09-03T09:52:40.880Z,979.65
2023-09-03T09:57:52.789Z,979.57
2023-09-03T10:03:04.808Z,979.65
2023-09-03T10:08:17.677Z,979.66
2023-09-03T10:13:29.701Z,979.58
2023-09-03T10:18:42.123Z,979.61
2023-09-03T10:23:54.408Z,979.51
2023-09-03T10:29:06.311Z,979.54
2023-09-03T10:34:18.285Z,979.53
2023-09-03T10:39:30.210Z,979.61
2023-09-03T10:44:42.299Z,979.56
2023-09-03T10:49:54.375Z,979.56
2023-09-03T10:55:06.417Z,979.49
2023-09-03T11:00:18.713Z,979.41
2023-09-03T11:05:30.717Z,979.42
2023-09-03T11:10:43.352Z,979.47
2023-09-03T11:15:55.398Z,979.56
2023-09-03T11:21:07.354Z,979.59
2023-09-03T11:26:19.257Z,979.4
2023-09-03T11:31:31.286Z,979.39
2023-09-03T11:36:43.341Z,979.38
2023-09-03T11:41:55.335Z,979.4
2023-09-03T11:47:07.425Z,979.48
2023-09-03T11:52:19.475Z,979.42
2023-09-03T11:57:31.772Z,979.45
2023-09-03T12:02:43.707Z,979.43
2023-09-03T12:07:55.727Z,979.48
2023-09-03T12:13:07.690Z,979.53
2023-09-03T12:18:20.105Z,979.49
2023-09-03T12:23:32.002Z,979.58
2023-09-03T12:28:45.950Z,979.59
2023-09-03T12:33:57.923Z,979.64
2023-09-03T12:39:09.827Z,979.63
2023-09-03T12:44:22.283Z,979.53
2023-09-03T12:49:34.831Z,979.46
2023-09-03T12:54:47.540Z,979.52
2023-09-03T13:00:14.686Z,979.57
2023-09-03T13:05:26.825Z,979.6
2023-09-03T13:10:39.355Z,979.63
2023-09-03T13:15:51.916Z,979.64
2023-09-03T13:21:04.459Z,979.62
2023-09-03T13:26:17.077Z,979.58
2023-09-03T13:31:29.728Z,979.57
2023-09-03T13:42:33.941Z,979.67
2023-09-03T13:47:48.317Z,979.59
2023-09-03T13:53:00.868Z,979.56
2023-09-03T13:58:13.358Z,979.54
2023-09-03T14:03:26.224Z,979.5
2023-09-03T14:08:38.266Z,979.54
2023-09-03T14:13:50.751Z,979.57
2023-09-03T14:19:03.375Z,979.51
2023-09-03T14:24:24.849Z,979.49
2023-09-03T14:29:37.347Z,979.49
2023-09-03T14:34:49.853Z,979.41
2023-09-03T14:40:02.409Z,979.38
2023-09-03T14:56:27.138Z,979.37
2023-09-03T15:01:39.340Z,979.36
2023-09-03T15:06:51.905Z,979.35
2023-09-03T15:12:04.618Z,979.38
2023-09-03T15:17:17.289Z,979.37
2023-09-03T15:22:46.280Z,979.32
2023-09-03T15:27:58.855Z,979.32
2023-09-03T15:33:10.822Z,979.39
2023-09-03T15:38:23.060Z,979.33
2023-09-03T15:43:35.111Z,979.43
2023-09-03T15:48:47.014Z,979.42
2023-09-03T15:53:58.914Z,979.45
2023-09-03T15:59:13.220Z,979.46
2023-09-03T16:04:25.306Z,979.44
2023-09-03T16:09:37.225Z,979.45
2023-09-03T16:14:49.865Z,979.41
2023-09-03T16:20:03.055Z,979.52
2023-09-03T16:25:15.617Z,979.5
2023-09-03T16:30:46.107Z,979.56
2023-09-03T16:35:58.584Z,979.49
2023-09-03T16:41:12.110Z,979.54
2023-09-03T16:46:25.034Z,979.52
2023-09-03T16:51:37.992Z,979.56
2023-09-03T16:56:49.895Z,979.51
2023-09-03T17:02:02.081Z,979.48
2023-09-03T17:07:14.883Z,979.55
2023-09-03T17:12:27.315Z,979.48
2023-09-03T17:17:40.979Z,979.51
2023-09-03T17:22:54.116Z,979.4
2023-09-03T17:28:06.218Z,979.44
2023-09-03T17:33:18.313Z,979.5
2023-09-03T17:38:30.242Z,979.5
2023-09-03T17:43:42.141Z,979.54
2023-09-03T17:48:54.061Z,979.53
2023-09-03T17:54:06.130Z,979.6
2023-09-03T18:04:35.596Z,979.54
2023-09-03T18:09:47.553Z,979.56
2023-09-03T18:14:59.454Z,979.71
2023-09-03T18:20:11.350Z,979.71
2023-09-03T18:25:23.244Z,979.75
2023-09-03T18:30:35.141Z,979.77
2023-09-03T18:35:47.087Z,979.76
2023-09-03T18:40:58.995Z,979.84
2023-09-03T18:46:11.080Z,979.9
2023-09-03T18:51:23.039Z,979.89
2023-09-03T18:56:34.955Z,979.86
2023-09-03T19:01:46.901Z,979.95
2023-09-03T19:06:58.892Z,980.03
2023-09-03T19:12:11.012Z,980.07
2023-09-03T19:17:22.953Z,980.05
2023-09-03T19:22:34.912Z,979.91
2023-09-03T19:27:47.105Z,980.03
2023-09-03T19:32:59.084Z,979.99
2023-09-03T19:38:11.188Z,980.09
2023-09-03T19:43:23.488Z,980.06
2023-09-03T19:48:36.013Z,980.07
2023-09-03T19:53:47.914Z,980.16
2023-09-03T19:59:00.268Z,980.13
2023-09-03T20:04:12.238Z,980.12
2023-09-03T20:09:24.257Z,980.14
2023-09-03T20:14:36.227Z,979.97
2023-09-03T20:19:48.183Z,980.05
2023-09-03T20:25:00.111Z,980.01
2023-09-03T20:30:12.017Z,979.93
2023-09-03T20:35:23.914Z,979.93
2023-09-03T20:40:35.795Z,979.97
2023-09-03T20:45:47.744Z,979.95
2023-09-03T20:50:59.689Z,979.92
2023-09-03T20:56:11.596Z,979.86
2023-09-03T21:01:23.699Z,979.91
2023-09-03T21:06:35.690Z,979.92
2023-09-03T21:11:47.785Z,979.95
2023-09-03T21:16:59.753Z,979.94
2023-09-03T21:22:11.729Z,979.91
2023-09-03T21:27:23.637Z,979.87
2023-09-03T21:32:35.583Z,979.85
2023-09-03T21:37:47.495Z,979.85
2023-09-03T21:42:59.391Z,979.73
2023-09-03T21:48:11.555Z,979.72
2023-09-03T21:53:23.623Z,979.72
2023-09-03T21:58:35.779Z,979.71
2023-09-03T22:09:05.501Z,979.74
2023-09-03T22:14:17.471Z,979.72
2023-09-03T22:19:29.502Z,979.72
2023-09-03T22:24:41.395Z,979.7
2023-09-03T22:29:54.535Z,979.7
2023-09-03T22:35:06.620Z,979.76
2023-09-03T22:40:18.538Z,979.82
2023-09-03T22:45:30.702Z,979.79
2023-09-03T22:50:43.497Z,979.86
2023-09-03T22:55:55.393Z,979.8
2023-09-03T23:01:07.386Z,979.7
2023-09-03T23:06:19.295Z,979.86
2023-09-03T23:11:31.254Z,979.78
2023-09-03T23:16:43.199Z,979.85
2023-09-03T23:21:55.317Z,979.88
2023-09-03T23:27:07.245Z,980.04
2023-09-03T23:32:19.140Z,979.98
2023-09-03T23:37:31.036Z,980.01
2023-09-03T23:42:43.034Z,979.83
2023-09-03T23:47:54.955Z,979.81
2023-09-03T23:53:06.938Z,979.75
2023-09-03T23:58:18.844Z,979.74
